sensor_id;sensor_type;location;lat;lon;timestamp;P1;durP1;ratioP1;P2;durP2;ratioP2
49758;SDS011;70329;45.524;10.194;2023-07-31T00:03:42;5.35;;;3.00;;
49758;SDS011;70329;45.524;10.194;2023-07-31T00:08:32;7.07;;;3.30;;
49758;SDS011;70329;45.524;10.194;2023-07-31T00:13:23;5.20;;;3.30;;
49758;SDS011;70329;45.524;10.194;2023-07-31T00:18:14;4.17;;;2.90;;
49758;SDS011;70329;45.524;10.194;2023-07-31T00:23:05;6.82;;;3.28;;
49758;SDS011;70329;45.524;10.194;2023-07-31T00:27:56;5.97;;;3.20;;
49758;SDS011;70329;45.524;10.194;2023-07-31T00:32:47;5.47;;;3.10;;
49758;SDS011;70329;45.524;10.194;2023-07-31T00:37:38;4.63;;;3.20;;
49758;SDS011;70329;45.524;10.194;2023-07-31T00:42:29;5.40;;;3.03;;
49758;SDS011;70329;45.524;10.194;2023-07-31T00:47:19;4.25;;;3.03;;
49758;SDS011;70329;45.524;10.194;2023-07-31T00:52:10;5.60;;;2.90;;
49758;SDS011;70329;45.524;10.194;2023-07-31T00:57:01;4.43;;;3.15;;
49758;SDS011;70329;45.524;10.194;2023-07-31T01:01:53;5.07;;;2.90;;
49758;SDS011;70329;45.524;10.194;2023-07-31T01:11:46;5.70;;;3.20;;
49758;SDS011;70329;45.524;10.194;2023-07-31T01:14:17;5.82;;;3.20;;
49758;SDS011;70329;45.524;10.194;2023-07-31T01:19:07;4.43;;;2.72;;
49758;SDS011;70329;45.524;10.194;2023-07-31T01:26:56;6.93;;;3.15;;
49758;SDS011;70329;45.524;10.194;2023-07-31T01:29:29;5.38;;;3.17;;
49758;SDS011;70329;45.524;10.194;2023-07-31T01:32:02;5.22;;;2.70;;
49758;SDS011;70329;45.524;10.194;2023-07-31T01:34:28;5.40;;;2.88;;
49758;SDS011;70329;45.524;10.194;2023-07-31T01:36:56;6.13;;;3.25;;
49758;SDS011;70329;45.524;10.194;2023-07-31T01:39:23;5.90;;;3.20;;
49758;SDS011;70329;45.524;10.194;2023-07-31T01:44:14;4.83;;;3.10;;
49758;SDS011;70329;45.524;10.194;2023-07-31T01:49:05;5.37;;;3.03;;
49758;SDS011;70329;45.524;10.194;2023-07-31T01:51:31;3.80;;;2.70;;
49758;SDS011;70329;45.524;10.194;2023-07-31T01:53:59;7.97;;;3.30;;
49758;SDS011;70329;45.524;10.194;2023-07-31T01:56:27;5.53;;;3.15;;
49758;SDS011;70329;45.524;10.194;2023-07-31T02:01:18;4.03;;;2.70;;
49758;SDS011;70329;45.524;10.194;2023-07-31T02:06:09;5.20;;;2.70;;
49758;SDS011;70329;45.524;10.194;2023-07-31T02:10:59;6.60;;;3.27;;
49758;SDS011;70329;45.524;10.194;2023-07-31T02:15:50;4.10;;;2.95;;
49758;SDS011;70329;45.524;10.194;2023-07-31T02:20:41;6.78;;;3.00;;
49758;SDS011;70329;45.524;10.194;2023-07-31T02:25:31;5.37;;;3.57;;
49758;SDS011;70329;45.524;10.194;2023-07-31T02:30:22;5.03;;;3.57;;
49758;SDS011;70329;45.524;10.194;2023-07-31T02:35:13;6.77;;;3.57;;
49758;SDS011;70329;45.524;10.194;2023-07-31T02:37:40;5.03;;;3.83;;
49758;SDS011;70329;45.524;10.194;2023-07-31T02:40:07;6.85;;;3.88;;
49758;SDS011;70329;45.524;10.194;2023-07-31T02:44:57;5.80;;;4.20;;
49758;SDS011;70329;45.524;10.194;2023-07-31T02:49:48;6.90;;;4.55;;
49758;SDS011;70329;45.524;10.194;2023-07-31T02:54:39;7.45;;;4.28;;
49758;SDS011;70329;45.524;10.194;2023-07-31T02:59:30;5.28;;;4.07;;
49758;SDS011;70329;45.524;10.194;2023-07-31T03:04:20;4.93;;;3.95;;
49758;SDS011;70329;45.524;10.194;2023-07-31T03:09:11;5.80;;;4.28;;
49758;SDS011;70329;45.524;10.194;2023-07-31T03:14:02;6.57;;;3.73;;
49758;SDS011;70329;45.524;10.194;2023-07-31T03:18:52;9.48;;;4.25;;
49758;SDS011;70329;45.524;10.194;2023-07-31T03:21:19;6.55;;;4.10;;
49758;SDS011;70329;45.524;10.194;2023-07-31T03:26:09;6.40;;;4.55;;
49758;SDS011;70329;45.524;10.194;2023-07-31T03:31:01;6.35;;;4.30;;
49758;SDS011;70329;45.524;10.194;2023-07-31T03:35:52;8.25;;;5.00;;
49758;SDS011;70329;45.524;10.194;2023-07-31T03:38:18;9.23;;;5.28;;
49758;SDS011;70329;45.524;10.194;2023-07-31T03:43:09;7.68;;;5.10;;
49758;SDS011;70329;45.524;10.194;2023-07-31T03:47:59;13.43;;;6.53;;
49758;SDS011;70329;45.524;10.194;2023-07-31T03:52:50;11.68;;;5.45;;
49758;SDS011;70329;45.524;10.194;2023-07-31T03:57:41;9.02;;;5.50;;
49758;SDS011;70329;45.524;10.194;2023-07-31T04:02:32;8.82;;;6.07;;
49758;SDS011;70329;45.524;10.194;2023-07-31T04:07:23;8.27;;;5.97;;
49758;SDS011;70329;45.524;10.194;2023-07-31T04:09:48;6.00;;;5.00;;
49758;SDS011;70329;45.524;10.194;2023-07-31T04:14:39;6.83;;;5.03;;
49758;SDS011;70329;45.524;10.194;2023-07-31T04:17:04;6.70;;;5.07;;
49758;SDS011;70329;45.524;10.194;2023-07-31T04:21:55;7.43;;;5.77;;
49758;SDS011;70329;45.524;10.194;2023-07-31T04:26:49;7.47;;;5.25;;
49758;SDS011;70329;45.524;10.194;2023-07-31T04:29:16;7.50;;;5.20;;
49758;SDS011;70329;45.524;10.194;2023-07-31T04:31:41;8.18;;;5.65;;
49758;SDS011;70329;45.524;10.194;2023-07-31T04:36:32;6.43;;;5.23;;
49758;SDS011;70329;45.524;10.194;2023-07-31T04:38:58;7.10;;;5.53;;
49758;SDS011;70329;45.524;10.194;2023-07-31T04:43:49;7.40;;;5.18;;
49758;SDS011;70329;45.524;10.194;2023-07-31T04:48:40;9.30;;;5.10;;
49758;SDS011;70329;45.524;10.194;2023-07-31T04:53:33;7.55;;;4.85;;
49758;SDS011;70329;45.524;10.194;2023-07-31T04:55:58;10.15;;;5.05;;
49758;SDS011;70329;45.524;10.194;2023-07-31T05:00:49;9.47;;;5.00;;
49758;SDS011;70329;45.524;10.194;2023-07-31T05:03:15;10.23;;;5.10;;
49758;SDS011;70329;45.524;10.194;2023-07-31T05:05:42;7.60;;;5.65;;
49758;SDS011;70329;45.524;10.194;2023-07-31T05:08:07;7.45;;;5.10;;
49758;SDS011;70329;45.524;10.194;2023-07-31T05:12:58;10.70;;;5.90;;
49758;SDS011;70329;45.524;10.194;2023-07-31T05:15:23;12.13;;;6.10;;
49758;SDS011;70329;45.524;10.194;2023-07-31T05:20:14;7.82;;;5.45;;
49758;SDS011;70329;45.524;10.194;2023-07-31T05:25:06;9.00;;;5.43;;
49758;SDS011;70329;45.524;10.194;2023-07-31T05:27:32;11.27;;;5.63;;
49758;SDS011;70329;45.524;10.194;2023-07-31T05:29:57;10.38;;;5.43;;
49758;SDS011;70329;45.524;10.194;2023-07-31T05:32:26;6.25;;;5.18;;
49758;SDS011;70329;45.524;10.194;2023-07-31T05:34:52;8.90;;;5.72;;
49758;SDS011;70329;45.524;10.194;2023-07-31T05:37:18;7.32;;;5.60;;
49758;SDS011;70329;45.524;10.194;2023-07-31T05:39:44;7.03;;;5.40;;
49758;SDS011;70329;45.524;10.194;2023-07-31T05:44:34;8.30;;;5.90;;
49758;SDS011;70329;45.524;10.194;2023-07-31T05:49:25;9.77;;;6.50;;
49758;SDS011;70329;45.524;10.194;2023-07-31T05:54:16;6.68;;;5.28;;
49758;SDS011;70329;45.524;10.194;2023-07-31T05:56:44;8.25;;;5.82;;
49758;SDS011;70329;45.524;10.194;2023-07-31T06:01:37;7.55;;;5.50;;
49758;SDS011;70329;45.524;10.194;2023-07-31T06:06:28;8.40;;;5.30;;
49758;SDS011;70329;45.524;10.194;2023-07-31T06:11:19;8.60;;;5.03;;
49758;SDS011;70329;45.524;10.194;2023-07-31T06:13:45;9.27;;;5.65;;
49758;SDS011;70329;45.524;10.194;2023-07-31T06:16:13;10.10;;;5.43;;
49758;SDS011;70329;45.524;10.194;2023-07-31T06:21:04;6.82;;;4.72;;
49758;SDS011;70329;45.524;10.194;2023-07-31T06:23:29;9.55;;;4.75;;
49758;SDS011;70329;45.524;10.194;2023-07-31T06:25:54;9.75;;;5.22;;
49758;SDS011;70329;45.524;10.194;2023-07-31T06:28:20;8.20;;;4.68;;
49758;SDS011;70329;45.524;10.194;2023-07-31T06:30:45;9.75;;;5.80;;
49758;SDS011;70329;45.524;10.194;2023-07-31T06:33:10;6.97;;;5.22;;
49758;SDS011;70329;45.524;10.194;2023-07-31T06:35:36;9.18;;;5.05;;
49758;SDS011;70329;45.524;10.194;2023-07-31T06:38:01;8.00;;;5.18;;
49758;SDS011;70329;45.524;10.194;2023-07-31T06:40:27;7.70;;;5.38;;
49758;SDS011;70329;45.524;10.194;2023-07-31T06:42:53;7.47;;;5.00;;
49758;SDS011;70329;45.524;10.194;2023-07-31T06:45:18;8.52;;;5.30;;
49758;SDS011;70329;45.524;10.194;2023-07-31T06:47:44;8.02;;;5.45;;
49758;SDS011;70329;45.524;10.194;2023-07-31T06:50:09;7.72;;;5.30;;
49758;SDS011;70329;45.524;10.194;2023-07-31T06:55:09;11.07;;;5.45;;
49758;SDS011;70329;45.524;10.194;2023-07-31T06:57:45;8.45;;;5.93;;
49758;SDS011;70329;45.524;10.194;2023-07-31T07:00:12;10.20;;;5.95;;
49758;SDS011;70329;45.524;10.194;2023-07-31T07:02:38;6.60;;;5.85;;
49758;SDS011;70329;45.524;10.194;2023-07-31T07:05:03;10.15;;;5.95;;
49758;SDS011;70329;45.524;10.194;2023-07-31T07:09:54;7.40;;;5.22;;
49758;SDS011;70329;45.524;10.194;2023-07-31T07:12:20;7.40;;;5.20;;
49758;SDS011;70329;45.524;10.194;2023-07-31T07:14:45;9.38;;;5.20;;
49758;SDS011;70329;45.524;10.194;2023-07-31T07:17:13;10.60;;;5.25;;
49758;SDS011;70329;45.524;10.194;2023-07-31T07:19:42;8.48;;;4.93;;
49758;SDS011;70329;45.524;10.194;2023-07-31T07:22:07;10.98;;;4.70;;
49758;SDS011;70329;45.524;10.194;2023-07-31T07:24:33;9.85;;;5.45;;
49758;SDS011;70329;45.524;10.194;2023-07-31T07:26:58;9.85;;;5.25;;
49758;SDS011;70329;45.524;10.194;2023-07-31T07:29:23;10.95;;;5.47;;
49758;SDS011;70329;45.524;10.194;2023-07-31T07:31:49;9.45;;;6.15;;
49758;SDS011;70329;45.524;10.194;2023-07-31T07:34:14;7.30;;;5.00;;
49758;SDS011;70329;45.524;10.194;2023-07-31T07:36:39;13.98;;;4.57;;
49758;SDS011;70329;45.524;10.194;2023-07-31T07:39:05;9.23;;;4.55;;
49758;SDS011;70329;45.524;10.194;2023-07-31T07:41:30;8.05;;;4.90;;
49758;SDS011;70329;45.524;10.194;2023-07-31T07:43:55;15.27;;;5.38;;
49758;SDS011;70329;45.524;10.194;2023-07-31T07:46:21;11.93;;;5.90;;
49758;SDS011;70329;45.524;10.194;2023-07-31T07:48:46;19.08;;;6.38;;
49758;SDS011;70329;45.524;10.194;2023-07-31T07:51:11;12.85;;;5.90;;
49758;SDS011;70329;45.524;10.194;2023-07-31T07:53:37;11.38;;;5.20;;
49758;SDS011;70329;45.524;10.194;2023-07-31T07:56:02;10.98;;;5.28;;
49758;SDS011;70329;45.524;10.194;2023-07-31T07:58:28;9.02;;;5.18;;
49758;SDS011;70329;45.524;10.194;2023-07-31T08:00:53;8.10;;;5.15;;
49758;SDS011;70329;45.524;10.194;2023-07-31T08:03:19;9.45;;;4.97;;
49758;SDS011;70329;45.524;10.194;2023-07-31T08:05:44;14.27;;;5.55;;
49758;SDS011;70329;45.524;10.194;2023-07-31T08:08:14;13.05;;;5.15;;
49758;SDS011;70329;45.524;10.194;2023-07-31T08:10:40;12.20;;;4.97;;
49758;SDS011;70329;45.524;10.194;2023-07-31T08:13:06;7.32;;;4.30;;
49758;SDS011;70329;45.524;10.194;2023-07-31T08:15:31;5.40;;;3.03;;
49758;SDS011;70329;45.524;10.194;2023-07-31T08:17:56;7.28;;;3.35;;
49758;SDS011;70329;45.524;10.194;2023-07-31T08:20:22;7.32;;;3.50;;
49758;SDS011;70329;45.524;10.194;2023-07-31T08:22:47;4.55;;;3.40;;
49758;SDS011;70329;45.524;10.194;2023-07-31T08:25:12;6.30;;;3.33;;
49758;SDS011;70329;45.524;10.194;2023-07-31T08:27:38;5.35;;;2.20;;
49758;SDS011;70329;45.524;10.194;2023-07-31T08:30:03;4.88;;;2.10;;
49758;SDS011;70329;45.524;10.194;2023-07-31T08:32:29;2.40;;;1.90;;
49758;SDS011;70329;45.524;10.194;2023-07-31T08:34:54;5.00;;;1.80;;
49758;SDS011;70329;45.524;10.194;2023-07-31T08:37:20;3.10;;;2.28;;
49758;SDS011;70329;45.524;10.194;2023-07-31T08:39:45;2.80;;;1.85;;
49758;SDS011;70329;45.524;10.194;2023-07-31T08:42:10;3.58;;;1.70;;
49758;SDS011;70329;45.524;10.194;2023-07-31T08:44:37;2.63;;;1.90;;
49758;SDS011;70329;45.524;10.194;2023-07-31T08:47:03;4.10;;;2.22;;
49758;SDS011;70329;45.524;10.194;2023-07-31T08:49:29;2.25;;;1.83;;
49758;SDS011;70329;45.524;10.194;2023-07-31T08:51:55;3.60;;;2.40;;
49758;SDS011;70329;45.524;10.194;2023-07-31T08:54:23;4.72;;;2.22;;
49758;SDS011;70329;45.524;10.194;2023-07-31T08:56:48;5.65;;;2.75;;
49758;SDS011;70329;45.524;10.194;2023-07-31T08:59:15;2.75;;;2.25;;
49758;SDS011;70329;45.524;10.194;2023-07-31T09:01:43;3.35;;;2.40;;
49758;SDS011;70329;45.524;10.194;2023-07-31T09:04:14;2.65;;;2.05;;
49758;SDS011;70329;45.524;10.194;2023-07-31T09:06:43;6.55;;;2.60;;
49758;SDS011;70329;45.524;10.194;2023-07-31T09:09:10;2.83;;;2.10;;
49758;SDS011;70329;45.524;10.194;2023-07-31T09:11:35;3.47;;;2.33;;
49758;SDS011;70329;45.524;10.194;2023-07-31T09:14:01;4.03;;;2.10;;
49758;SDS011;70329;45.524;10.194;2023-07-31T09:16:33;2.38;;;2.00;;
49758;SDS011;70329;45.524;10.194;2023-07-31T09:18:59;2.75;;;2.10;;
49758;SDS011;70329;45.524;10.194;2023-07-31T09:21:26;3.78;;;2.08;;
49758;SDS011;70329;45.524;10.194;2023-07-31T09:23:53;7.57;;;3.28;;
49758;SDS011;70329;45.524;10.194;2023-07-31T09:26:29;7.47;;;3.00;;
49758;SDS011;70329;45.524;10.194;2023-07-31T09:28:55;3.65;;;2.15;;
49758;SDS011;70329;45.524;10.194;2023-07-31T09:34:06;4.32;;;2.60;;
49758;SDS011;70329;45.524;10.194;2023-07-31T09:36:32;6.22;;;2.90;;
49758;SDS011;70329;45.524;10.194;2023-07-31T09:39:03;4.55;;;2.30;;
49758;SDS011;70329;45.524;10.194;2023-07-31T09:41:29;8.77;;;3.03;;
49758;SDS011;70329;45.524;10.194;2023-07-31T09:43:55;4.78;;;2.47;;
49758;SDS011;70329;45.524;10.194;2023-07-31T09:46:21;6.38;;;2.58;;
49758;SDS011;70329;45.524;10.194;2023-07-31T09:48:47;2.80;;;2.15;;
49758;SDS011;70329;45.524;10.194;2023-07-31T09:51:12;2.47;;;1.80;;
49758;SDS011;70329;45.524;10.194;2023-07-31T09:53:38;1.75;;;1.50;;
49758;SDS011;70329;45.524;10.194;2023-07-31T09:56:03;3.05;;;2.08;;
49758;SDS011;70329;45.524;10.194;2023-07-31T09:58:29;2.17;;;1.80;;
49758;SDS011;70329;45.524;10.194;2023-07-31T10:00:59;2.88;;;1.95;;
49758;SDS011;70329;45.524;10.194;2023-07-31T10:03:26;3.38;;;2.28;;
49758;SDS011;70329;45.524;10.194;2023-07-31T10:05:54;4.28;;;2.50;;
49758;SDS011;70329;45.524;10.194;2023-07-31T10:08:22;3.40;;;2.00;;
49758;SDS011;70329;45.524;10.194;2023-07-31T10:10:54;2.92;;;2.28;;
49758;SDS011;70329;45.524;10.194;2023-07-31T10:13:23;2.45;;;2.10;;
49758;SDS011;70329;45.524;10.194;2023-07-31T10:15:49;2.55;;;2.03;;
49758;SDS011;70329;45.524;10.194;2023-07-31T10:18:16;3.35;;;1.85;;
49758;SDS011;70329;45.524;10.194;2023-07-31T10:20:43;2.30;;;2.03;;
49758;SDS011;70329;45.524;10.194;2023-07-31T10:23:10;3.28;;;1.70;;
49758;SDS011;70329;45.524;10.194;2023-07-31T10:25:36;2.72;;;1.90;;
49758;SDS011;70329;45.524;10.194;2023-07-31T10:28:03;6.55;;;2.33;;
49758;SDS011;70329;45.524;10.194;2023-07-31T10:30:29;2.75;;;2.20;;
49758;SDS011;70329;45.524;10.194;2023-07-31T10:32:57;3.47;;;2.20;;
49758;SDS011;70329;45.524;10.194;2023-07-31T10:35:23;3.78;;;2.42;;
49758;SDS011;70329;45.524;10.194;2023-07-31T10:37:49;4.25;;;2.50;;
49758;SDS011;70329;45.524;10.194;2023-07-31T10:42:48;2.70;;;2.22;;
49758;SDS011;70329;45.524;10.194;2023-07-31T10:45:27;3.00;;;2.20;;
49758;SDS011;70329;45.524;10.194;2023-07-31T10:47:58;4.03;;;2.00;;
49758;SDS011;70329;45.524;10.194;2023-07-31T10:56:01;6.32;;;2.65;;
49758;SDS011;70329;45.524;10.194;2023-07-31T10:58:28;4.22;;;2.28;;
49758;SDS011;70329;45.524;10.194;2023-07-31T11:00:57;4.32;;;2.75;;
49758;SDS011;70329;45.524;10.194;2023-07-31T11:03:25;6.65;;;2.80;;
49758;SDS011;70329;45.524;10.194;2023-07-31T11:08:27;6.57;;;2.70;;
49758;SDS011;70329;45.524;10.194;2023-07-31T11:15:56;4.72;;;2.80;;
49758;SDS011;70329;45.524;10.194;2023-07-31T11:18:23;5.72;;;3.15;;
49758;SDS011;70329;45.524;10.194;2023-07-31T11:20:48;5.88;;;3.10;;
49758;SDS011;70329;45.524;10.194;2023-07-31T11:23:15;10.68;;;3.42;;
49758;SDS011;70329;45.524;10.194;2023-07-31T11:25:42;6.18;;;2.95;;
49758;SDS011;70329;45.524;10.194;2023-07-31T11:28:14;4.95;;;2.80;;
49758;SDS011;70329;45.524;10.194;2023-07-31T11:30:41;5.35;;;2.95;;
49758;SDS011;70329;45.524;10.194;2023-07-31T11:33:11;4.35;;;3.50;;
49758;SDS011;70329;45.524;10.194;2023-07-31T11:38:31;4.15;;;3.40;;
49758;SDS011;70329;45.524;10.194;2023-07-31T11:40:59;7.57;;;3.72;;
49758;SDS011;70329;45.524;10.194;2023-07-31T11:43:28;4.85;;;3.58;;
49758;SDS011;70329;45.524;10.194;2023-07-31T11:46:00;7.05;;;3.45;;
49758;SDS011;70329;45.524;10.194;2023-07-31T11:48:34;4.85;;;3.08;;
49758;SDS011;70329;45.524;10.194;2023-07-31T11:51:02;4.50;;;3.00;;
49758;SDS011;70329;45.524;10.194;2023-07-31T11:53:33;4.53;;;3.40;;
49758;SDS011;70329;45.524;10.194;2023-07-31T11:56:02;4.13;;;3.53;;
49758;SDS011;70329;45.524;10.194;2023-07-31T11:58:32;5.28;;;2.67;;
49758;SDS011;70329;45.524;10.194;2023-07-31T12:00:59;5.97;;;3.13;;
49758;SDS011;70329;45.524;10.194;2023-07-31T12:03:25;6.53;;;3.00;;
49758;SDS011;70329;45.524;10.194;2023-07-31T12:05:52;5.15;;;2.92;;
49758;SDS011;70329;45.524;10.194;2023-07-31T12:08:18;4.38;;;2.53;;
49758;SDS011;70329;45.524;10.194;2023-07-31T12:10:46;2.83;;;2.42;;
49758;SDS011;70329;45.524;10.194;2023-07-31T12:13:20;5.97;;;2.50;;
49758;SDS011;70329;45.524;10.194;2023-07-31T12:15:53;4.28;;;2.13;;
49758;SDS011;70329;45.524;10.194;2023-07-31T12:18:20;5.15;;;2.38;;
49758;SDS011;70329;45.524;10.194;2023-07-31T12:20:46;4.18;;;2.65;;
49758;SDS011;70329;45.524;10.194;2023-07-31T12:23:14;4.43;;;2.25;;
49758;SDS011;70329;45.524;10.194;2023-07-31T12:25:40;3.97;;;2.10;;
49758;SDS011;70329;45.524;10.194;2023-07-31T12:28:06;3.92;;;2.78;;
49758;SDS011;70329;45.524;10.194;2023-07-31T12:30:36;9.00;;;2.75;;
49758;SDS011;70329;45.524;10.194;2023-07-31T12:33:06;3.63;;;2.53;;
49758;SDS011;70329;45.524;10.194;2023-07-31T12:35:38;4.75;;;2.85;;
49758;SDS011;70329;45.524;10.194;2023-07-31T12:38:06;5.22;;;2.78;;
49758;SDS011;70329;45.524;10.194;2023-07-31T12:40:32;3.33;;;2.85;;
49758;SDS011;70329;45.524;10.194;2023-07-31T12:42:58;3.75;;;2.63;;
49758;SDS011;70329;45.524;10.194;2023-07-31T12:45:27;2.83;;;2.45;;
49758;SDS011;70329;45.524;10.194;2023-07-31T12:47:52;2.92;;;2.45;;
49758;SDS011;70329;45.524;10.194;2023-07-31T12:50:18;5.38;;;3.00;;
49758;SDS011;70329;45.524;10.194;2023-07-31T12:52:43;3.72;;;2.53;;
49758;SDS011;70329;45.524;10.194;2023-07-31T12:55:09;3.08;;;2.55;;
49758;SDS011;70329;45.524;10.194;2023-07-31T12:57:35;5.18;;;2.92;;
49758;SDS011;70329;45.524;10.194;2023-07-31T13:00:01;4.15;;;2.60;;
49758;SDS011;70329;45.524;10.194;2023-07-31T13:02:27;5.22;;;3.00;;
49758;SDS011;70329;45.524;10.194;2023-07-31T13:04:52;6.03;;;2.67;;
49758;SDS011;70329;45.524;10.194;2023-07-31T13:07:19;5.15;;;2.97;;
49758;SDS011;70329;45.524;10.194;2023-07-31T13:09:44;3.58;;;2.80;;
49758;SDS011;70329;45.524;10.194;2023-07-31T13:12:10;5.32;;;2.88;;
49758;SDS011;70329;45.524;10.194;2023-07-31T13:14:35;4.18;;;2.70;;
49758;SDS011;70329;45.524;10.194;2023-07-31T13:17:00;3.65;;;3.20;;
49758;SDS011;70329;45.524;10.194;2023-07-31T13:19:26;4.60;;;3.13;;
49758;SDS011;70329;45.524;10.194;2023-07-31T13:21:51;5.97;;;2.75;;
49758;SDS011;70329;45.524;10.194;2023-07-31T13:24:17;4.68;;;3.00;;
49758;SDS011;70329;45.524;10.194;2023-07-31T13:26:42;6.47;;;3.33;;
49758;SDS011;70329;45.524;10.194;2023-07-31T13:29:07;5.25;;;3.15;;
49758;SDS011;70329;45.524;10.194;2023-07-31T13:31:33;5.20;;;3.47;;
49758;SDS011;70329;45.524;10.194;2023-07-31T13:33:58;4.20;;;3.45;;
49758;SDS011;70329;45.524;10.194;2023-07-31T13:36:23;6.43;;;3.25;;
49758;SDS011;70329;45.524;10.194;2023-07-31T13:38:49;4.55;;;3.05;;
49758;SDS011;70329;45.524;10.194;2023-07-31T13:41:14;7.05;;;3.00;;
49758;SDS011;70329;45.524;10.194;2023-07-31T13:43:39;4.95;;;3.20;;
49758;SDS011;70329;45.524;10.194;2023-07-31T13:46:06;4.82;;;3.03;;
49758;SDS011;70329;45.524;10.194;2023-07-31T13:48:35;4.15;;;2.83;;
49758;SDS011;70329;45.524;10.194;2023-07-31T13:51:01;2.90;;;2.60;;
49758;SDS011;70329;45.524;10.194;2023-07-31T13:53:26;3.30;;;2.70;;
49758;SDS011;70329;45.524;10.194;2023-07-31T13:55:51;3.80;;;2.67;;
49758;SDS011;70329;45.524;10.194;2023-07-31T13:58:17;3.70;;;2.80;;
49758;SDS011;70329;45.524;10.194;2023-07-31T14:00:42;4.68;;;2.65;;
49758;SDS011;70329;45.524;10.194;2023-07-31T14:03:08;3.03;;;2.45;;
49758;SDS011;70329;45.524;10.194;2023-07-31T14:05:33;3.15;;;2.63;;
49758;SDS011;70329;45.524;10.194;2023-07-31T14:07:59;4.63;;;2.78;;
49758;SDS011;70329;45.524;10.194;2023-07-31T14:10:25;8.60;;;2.63;;
49758;SDS011;70329;45.524;10.194;2023-07-31T14:12:50;4.55;;;3.10;;
49758;SDS011;70329;45.524;10.194;2023-07-31T14:15:18;3.47;;;2.83;;
49758;SDS011;70329;45.524;10.194;2023-07-31T14:17:44;3.38;;;2.42;;
49758;SDS011;70329;45.524;10.194;2023-07-31T14:20:09;4.15;;;2.90;;
49758;SDS011;70329;45.524;10.194;2023-07-31T14:22:35;4.97;;;2.80;;
49758;SDS011;70329;45.524;10.194;2023-07-31T14:25:01;2.85;;;2.53;;
49758;SDS011;70329;45.524;10.194;2023-07-31T14:27:26;6.03;;;2.65;;
49758;SDS011;70329;45.524;10.194;2023-07-31T14:29:52;4.63;;;2.58;;
49758;SDS011;70329;45.524;10.194;2023-07-31T14:32:17;4.60;;;2.45;;
49758;SDS011;70329;45.524;10.194;2023-07-31T14:34:43;5.45;;;2.50;;
49758;SDS011;70329;45.524;10.194;2023-07-31T14:37:08;3.85;;;2.33;;
49758;SDS011;70329;45.524;10.194;2023-07-31T14:39:33;9.07;;;3.65;;
49758;SDS011;70329;45.524;10.194;2023-07-31T14:41:59;5.07;;;2.72;;
49758;SDS011;70329;45.524;10.194;2023-07-31T14:44:24;7.15;;;3.13;;
49758;SDS011;70329;45.524;10.194;2023-07-31T14:46:49;5.03;;;2.70;;
49758;SDS011;70329;45.524;10.194;2023-07-31T14:49:15;7.25;;;2.67;;
49758;SDS011;70329;45.524;10.194;2023-07-31T14:51:40;4.05;;;2.65;;
49758;SDS011;70329;45.524;10.194;2023-07-31T14:54:05;4.22;;;2.70;;
49758;SDS011;70329;45.524;10.194;2023-07-31T14:56:31;4.13;;;2.47;;
49758;SDS011;70329;45.524;10.194;2023-07-31T14:58:56;5.55;;;2.70;;
49758;SDS011;70329;45.524;10.194;2023-07-31T15:01:23;3.55;;;2.55;;
49758;SDS011;70329;45.524;10.194;2023-07-31T15:03:48;4.15;;;2.50;;
49758;SDS011;70329;45.524;10.194;2023-07-31T15:06:13;3.38;;;2.30;;
49758;SDS011;70329;45.524;10.194;2023-07-31T15:08:39;4.22;;;2.65;;
49758;SDS011;70329;45.524;10.194;2023-07-31T15:11:06;7.07;;;2.92;;
49758;SDS011;70329;45.524;10.194;2023-07-31T15:13:32;4.55;;;2.70;;
49758;SDS011;70329;45.524;10.194;2023-07-31T15:15:57;5.28;;;2.90;;
49758;SDS011;70329;45.524;10.194;2023-07-31T15:18:23;4.30;;;2.80;;
49758;SDS011;70329;45.524;10.194;2023-07-31T15:20:48;3.90;;;3.20;;
49758;SDS011;70329;45.524;10.194;2023-07-31T15:23:14;4.03;;;3.17;;
49758;SDS011;70329;45.524;10.194;2023-07-31T15:25:39;4.53;;;3.00;;
49758;SDS011;70329;45.524;10.194;2023-07-31T15:28:05;6.90;;;2.88;;
49758;SDS011;70329;45.524;10.194;2023-07-31T15:30:32;5.57;;;2.65;;
49758;SDS011;70329;45.524;10.194;2023-07-31T15:32:58;4.47;;;2.80;;
49758;SDS011;70329;45.524;10.194;2023-07-31T15:35:24;5.85;;;2.80;;
49758;SDS011;70329;45.524;10.194;2023-07-31T15:37:49;3.55;;;2.80;;
49758;SDS011;70329;45.524;10.194;2023-07-31T15:40:14;5.65;;;3.20;;
49758;SDS011;70329;45.524;10.194;2023-07-31T15:42:40;4.30;;;2.83;;
49758;SDS011;70329;45.524;10.194;2023-07-31T15:45:07;3.70;;;2.90;;
49758;SDS011;70329;45.524;10.194;2023-07-31T15:47:33;5.50;;;2.70;;
49758;SDS011;70329;45.524;10.194;2023-07-31T15:49:59;6.03;;;3.50;;
49758;SDS011;70329;45.524;10.194;2023-07-31T15:52:24;4.05;;;2.67;;
49758;SDS011;70329;45.524;10.194;2023-07-31T15:54:50;7.40;;;3.45;;
49758;SDS011;70329;45.524;10.194;2023-07-31T15:57:15;16.17;;;4.28;;
49758;SDS011;70329;45.524;10.194;2023-07-31T15:59:40;4.85;;;2.65;;
49758;SDS011;70329;45.524;10.194;2023-07-31T16:02:06;4.28;;;2.88;;
49758;SDS011;70329;45.524;10.194;2023-07-31T16:04:35;8.20;;;3.00;;
49758;SDS011;70329;45.524;10.194;2023-07-31T16:07:02;6.18;;;2.85;;
49758;SDS011;70329;45.524;10.194;2023-07-31T16:09:27;7.82;;;2.70;;
49758;SDS011;70329;45.524;10.194;2023-07-31T16:11:52;4.20;;;3.45;;
49758;SDS011;70329;45.524;10.194;2023-07-31T16:14:18;6.88;;;3.15;;
49758;SDS011;70329;45.524;10.194;2023-07-31T16:16:43;10.07;;;3.53;;
49758;SDS011;70329;45.524;10.194;2023-07-31T16:19:08;6.63;;;2.90;;
49758;SDS011;70329;45.524;10.194;2023-07-31T16:21:35;3.92;;;3.30;;
49758;SDS011;70329;45.524;10.194;2023-07-31T16:24:01;4.88;;;3.05;;
49758;SDS011;70329;45.524;10.194;2023-07-31T16:26:26;4.30;;;2.70;;
49758;SDS011;70329;45.524;10.194;2023-07-31T16:28:51;10.07;;;2.95;;
49758;SDS011;70329;45.524;10.194;2023-07-31T16:31:17;10.70;;;3.03;;
49758;SDS011;70329;45.524;10.194;2023-07-31T16:33:42;3.97;;;3.15;;
49758;SDS011;70329;45.524;10.194;2023-07-31T16:36:07;3.28;;;2.80;;
49758;SDS011;70329;45.524;10.194;2023-07-31T16:38:33;5.50;;;3.33;;
49758;SDS011;70329;45.524;10.194;2023-07-31T16:40:58;4.82;;;3.10;;
49758;SDS011;70329;45.524;10.194;2023-07-31T16:43:24;6.25;;;3.30;;
49758;SDS011;70329;45.524;10.194;2023-07-31T16:45:49;8.18;;;2.90;;
49758;SDS011;70329;45.524;10.194;2023-07-31T16:48:14;5.90;;;2.80;;
49758;SDS011;70329;45.524;10.194;2023-07-31T16:50:40;7.03;;;3.47;;
49758;SDS011;70329;45.524;10.194;2023-07-31T16:53:05;4.53;;;3.28;;
49758;SDS011;70329;45.524;10.194;2023-07-31T16:55:31;6.97;;;3.20;;
49758;SDS011;70329;45.524;10.194;2023-07-31T16:57:59;3.97;;;3.15;;
49758;SDS011;70329;45.524;10.194;2023-07-31T17:00:24;5.28;;;3.28;;
49758;SDS011;70329;45.524;10.194;2023-07-31T17:02:49;7.15;;;3.08;;
49758;SDS011;70329;45.524;10.194;2023-07-31T17:05:15;5.97;;;3.00;;
49758;SDS011;70329;45.524;10.194;2023-07-31T17:07:41;7.30;;;3.10;;
49758;SDS011;70329;45.524;10.194;2023-07-31T17:10:07;6.03;;;3.30;;
49758;SDS011;70329;45.524;10.194;2023-07-31T17:12:33;6.20;;;4.25;;
49758;SDS011;70329;45.524;10.194;2023-07-31T17:14:58;6.15;;;3.30;;
49758;SDS011;70329;45.524;10.194;2023-07-31T17:17:23;8.07;;;3.15;;
49758;SDS011;70329;45.524;10.194;2023-07-31T17:19:49;6.40;;;3.28;;
49758;SDS011;70329;45.524;10.194;2023-07-31T17:22:15;7.78;;;3.10;;
49758;SDS011;70329;45.524;10.194;2023-07-31T17:24:40;5.90;;;3.38;;
49758;SDS011;70329;45.524;10.194;2023-07-31T17:27:06;4.60;;;3.22;;
49758;SDS011;70329;45.524;10.194;2023-07-31T17:29:31;7.57;;;3.35;;